sensor_id;sensor_type;location;lat;lon;timestamp;pressure;altitude;pressure_sealevel;temperature;humidity
57847;BME280;43675;50.030;21.952;2022-12-18T00:03:48;99980.55;;;-3.71;72.34
57847;BME280;43675;50.030;21.952;2022-12-18T00:06:14;99989.65;;;-3.70;72.34
57847;BME280;43675;50.030;21.952;2022-12-18T00:08:44;99988.72;;;-3.69;72.32
57847;BME280;43675;50.030;21.952;2022-12-18T00:11:15;99991.23;;;-3.67;72.32
57847;BME280;43675;50.030;21.952;2022-12-18T00:13:41;99998.64;;;-3.67;72.32
57847;BME280;43675;50.030;21.952;2022-12-18T00:16:11;99999.41;;;-3.65;72.37
57847;BME280;43675;50.030;21.952;2022-12-18T00:18:37;100006.16;;;-3.61;72.34
57847;BME280;43675;50.030;21.952;2022-12-18T00:21:05;100001.56;;;-3.57;72.34
57847;BME280;43675;50.030;21.952;2022-12-18T00:23:32;100011.40;;;-3.54;72.31
57847;BME280;43675;50.030;21.952;2022-12-18T00:26:02;100017.38;;;-3.52;72.29
57847;BME280;43675;50.030;21.952;2022-12-18T00:28:28;100012.44;;;-3.49;72.26
57847;BME280;43675;50.030;21.952;2022-12-18T00:31:05;100015.33;;;-3.47;72.21
57847;BME280;43675;50.030;21.952;2022-12-18T00:33:31;100018.34;;;-3.46;72.22
57847;BME280;43675;50.030;21.952;2022-12-18T00:36:03;100031.08;;;-3.47;72.19
57847;BME280;43675;50.030;21.952;2022-12-18T00:38:29;100029.77;;;-3.47;72.23
57847;BME280;43675;50.030;21.952;2022-12-18T00:40:55;100041.96;;;-3.46;72.27
57847;BME280;43675;50.030;21.952;2022-12-18T00:43:20;100045.43;;;-3.45;72.24
57847;BME280;43675;50.030;21.952;2022-12-18T00:45:46;100049.91;;;-3.47;72.22
57847;BME280;43675;50.030;21.952;2022-12-18T00:48:12;100049.91;;;-3.47;72.25
57847;BME280;43675;50.030;21.952;2022-12-18T00:50:38;100052.62;;;-3.49;72.24
57847;BME280;43675;50.030;21.952;2022-12-18T00:53:03;100060.60;;;-3.50;72.26
57847;BME280;43675;50.030;21.952;2022-12-18T00:55:29;100066.05;;;-3.53;72.23
57847;BME280;43675;50.030;21.952;2022-12-18T00:57:55;100066.70;;;-3.57;72.26
57847;BME280;43675;50.030;21.952;2022-12-18T01:00:21;100079.98;;;-3.60;72.28
57847;BME280;43675;50.030;21.952;2022-12-18T01:02:47;100085.41;;;-3.63;72.22
57847;BME280;43675;50.030;21.952;2022-12-18T01:05:14;100079.59;;;-3.68;72.15
57847;BME280;43675;50.030;21.952;2022-12-18T01:07:40;100083.97;;;-3.75;72.17
57847;BME280;43675;50.030;21.952;2022-12-18T01:10:07;100090.34;;;-3.79;72.26
57847;BME280;43675;50.030;21.952;2022-12-18T01:12:33;100092.22;;;-3.82;72.23
57847;BME280;43675;50.030;21.952;2022-12-18T01:14:59;100102.79;;;-3.83;72.28
57847;BME280;43675;50.030;21.952;2022-12-18T01:17:25;100109.27;;;-3.82;72.26
57847;BME280;43675;50.030;21.952;2022-12-18T01:19:50;100110.12;;;-3.81;72.12
57847;BME280;43675;50.030;21.952;2022-12-18T01:22:16;100109.14;;;-3.87;71.90
57847;BME280;43675;50.030;21.952;2022-12-18T01:24:41;100118.77;;;-3.95;71.83
57847;BME280;43675;50.030;21.952;2022-12-18T01:27:07;100121.19;;;-3.99;71.89
57847;BME280;43675;50.030;21.952;2022-12-18T01:29:33;100127.85;;;-4.00;71.85
57847;BME280;43675;50.030;21.952;2022-12-18T01:31:59;100135.98;;;-4.05;71.74
57847;BME280;43675;50.030;21.952;2022-12-18T01:34:24;100153.34;;;-4.11;71.71
57847;BME280;43675;50.030;21.952;2022-12-18T01:36:50;100147.33;;;-4.20;71.72
57847;BME280;43675;50.030;21.952;2022-12-18T01:39:16;100146.34;;;-4.26;71.80
57847;BME280;43675;50.030;21.952;2022-12-18T01:41:42;100146.70;;;-4.32;71.91
57847;BME280;43675;50.030;21.952;2022-12-18T01:46:53;100150.74;;;-4.42;72.22
57847;BME280;43675;50.030;21.952;2022-12-18T01:49:20;100149.47;;;-4.51;72.43
57847;BME280;43675;50.030;21.952;2022-12-18T01:51:45;100151.27;;;-4.51;72.63
57847;BME280;43675;50.030;21.952;2022-12-18T01:54:11;100158.95;;;-4.48;72.75
57847;BME280;43675;50.030;21.952;2022-12-18T01:56:37;100157.33;;;-4.51;72.82
57847;BME280;43675;50.030;21.952;2022-12-18T01:59:05;100155.55;;;-4.50;72.95
57847;BME280;43675;50.030;21.952;2022-12-18T02:01:32;100166.36;;;-4.48;73.02
57847;BME280;43675;50.030;21.952;2022-12-18T02:06:50;100159.34;;;-4.47;73.17
57847;BME280;43675;50.030;21.952;2022-12-18T02:09:23;100171.03;;;-4.46;73.26
57847;BME280;43675;50.030;21.952;2022-12-18T02:14:48;100170.57;;;-4.45;73.41
57847;BME280;43675;50.030;21.952;2022-12-18T02:17:21;100165.72;;;-4.44;73.50
57847;BME280;43675;50.030;21.952;2022-12-18T02:27:51;100172.73;;;-4.45;73.85
57847;BME280;43675;50.030;21.952;2022-12-18T02:30:18;100181.98;;;-4.46;73.98
57847;BME280;43675;50.030;21.952;2022-12-18T02:32:50;100180.03;;;-4.43;74.01
57847;BME280;43675;50.030;21.952;2022-12-18T02:35:20;100187.82;;;-4.41;74.04
57847;BME280;43675;50.030;21.952;2022-12-18T02:37:46;100184.67;;;-4.39;74.02
57847;BME280;43675;50.030;21.952;2022-12-18T02:40:14;100195.89;;;-4.37;73.98
57847;BME280;43675;50.030;21.952;2022-12-18T02:42:41;100197.67;;;-4.38;73.90
57847;BME280;43675;50.030;21.952;2022-12-18T02:45:07;100202.52;;;-4.39;73.91
57847;BME280;43675;50.030;21.952;2022-12-18T02:47:40;100211.23;;;-4.38;73.89
57847;BME280;43675;50.030;21.952;2022-12-18T02:53:03;100213.49;;;-4.39;73.90
57847;BME280;43675;50.030;21.952;2022-12-18T03:03:41;100225.16;;;-4.29;73.84
57847;BME280;43675;50.030;21.952;2022-12-18T03:06:07;100225.83;;;-4.25;73.77
57847;BME280;43675;50.030;21.952;2022-12-18T03:08:37;100225.66;;;-4.22;73.70
57847;BME280;43675;50.030;21.952;2022-12-18T03:11:06;100229.98;;;-4.21;73.63
57847;BME280;43675;50.030;21.952;2022-12-18T03:13:39;100222.58;;;-4.22;73.53
57847;BME280;43675;50.030;21.952;2022-12-18T03:16:06;100218.75;;;-4.23;73.50
57847;BME280;43675;50.030;21.952;2022-12-18T03:18:36;100232.31;;;-4.24;73.52
57847;BME280;43675;50.030;21.952;2022-12-18T03:21:05;100238.13;;;-4.19;73.50
57847;BME280;43675;50.030;21.952;2022-12-18T03:23:38;100240.68;;;-4.17;73.39
57847;BME280;43675;50.030;21.952;2022-12-18T03:26:07;100240.61;;;-4.16;73.35
57847;BME280;43675;50.030;21.952;2022-12-18T03:28:36;100243.52;;;-4.13;73.32
57847;BME280;43675;50.030;21.952;2022-12-18T03:31:04;100254.22;;;-4.09;73.21
57847;BME280;43675;50.030;21.952;2022-12-18T03:33:55;100256.27;;;-4.07;73.07
57847;BME280;43675;50.030;21.952;2022-12-18T03:36:18;100257.44;;;-4.04;73.00
57847;BME280;43675;50.030;21.952;2022-12-18T03:38:44;100256.80;;;-4.01;72.90
57847;BME280;43675;50.030;21.952;2022-12-18T03:41:19;100267.51;;;-3.97;72.67
57847;BME280;43675;50.030;21.952;2022-12-18T03:44:20;100261.88;;;-3.98;72.43
57847;BME280;43675;50.030;21.952;2022-12-18T03:51:49;100296.21;;;-4.02;72.20
57847;BME280;43675;50.030;21.952;2022-12-18T03:54:16;100290.89;;;-4.01;72.16
57847;BME280;43675;50.030;21.952;2022-12-18T03:56:51;100288.56;;;-3.98;72.09
57847;BME280;43675;50.030;21.952;2022-12-18T03:59:14;100283.38;;;-4.00;71.90
57847;BME280;43675;50.030;21.952;2022-12-18T04:01:45;100297.13;;;-4.03;71.82
57847;BME280;43675;50.030;21.952;2022-12-18T04:04:12;100305.41;;;-4.11;71.73
57847;BME280;43675;50.030;21.952;2022-12-18T04:06:40;100310.61;;;-4.18;71.71
57847;BME280;43675;50.030;21.952;2022-12-18T04:09:07;100312.27;;;-4.24;71.51
57847;BME280;43675;50.030;21.952;2022-12-18T04:11:33;100309.10;;;-4.31;71.42
57847;BME280;43675;50.030;21.952;2022-12-18T04:13:59;100313.98;;;-4.32;71.42
57847;BME280;43675;50.030;21.952;2022-12-18T04:16:28;100323.00;;;-4.37;71.28
57847;BME280;43675;50.030;21.952;2022-12-18T04:18:54;100321.30;;;-4.38;71.35
57847;BME280;43675;50.030;21.952;2022-12-18T04:21:20;100317.59;;;-4.34;71.30
57847;BME280;43675;50.030;21.952;2022-12-18T04:23:46;100312.52;;;-4.37;71.09
57847;BME280;43675;50.030;21.952;2022-12-18T04:26:11;100323.80;;;-4.44;71.04
57847;BME280;43675;50.030;21.952;2022-12-18T04:28:37;100328.72;;;-4.46;71.10
57847;BME280;43675;50.030;21.952;2022-12-18T04:31:03;100336.22;;;-4.47;71.16
57847;BME280;43675;50.030;21.952;2022-12-18T04:33:29;100354.92;;;-4.46;71.08
57847;BME280;43675;50.030;21.952;2022-12-18T04:35:55;100353.25;;;-4.47;71.07
57847;BME280;43675;50.030;21.952;2022-12-18T04:38:21;100357.25;;;-4.49;71.11
57847;BME280;43675;50.030;21.952;2022-12-18T04:40:47;100360.27;;;-4.48;71.12
57847;BME280;43675;50.030;21.952;2022-12-18T04:43:13;100358.85;;;-4.46;71.11
57847;BME280;43675;50.030;21.952;2022-12-18T04:45:38;100361.80;;;-4.44;71.03
57847;BME280;43675;50.030;21.952;2022-12-18T04:48:04;100363.73;;;-4.47;70.95
57847;BME280;43675;50.030;21.952;2022-12-18T04:50:30;100365.11;;;-4.49;71.03
57847;BME280;43675;50.030;21.952;2022-12-18T04:52:57;100366.81;;;-4.48;71.02
57847;BME280;43675;50.030;21.952;2022-12-18T04:55:24;100371.49;;;-4.46;70.98
57847;BME280;43675;50.030;21.952;2022-12-18T04:57:50;100378.60;;;-4.48;70.85
57847;BME280;43675;50.030;21.952;2022-12-18T05:00:16;100383.62;;;-4.52;70.84
57847;BME280;43675;50.030;21.952;2022-12-18T05:02:42;100378.44;;;-4.53;70.78
57847;BME280;43675;50.030;21.952;2022-12-18T05:05:08;100376.73;;;-4.54;70.67
57847;BME280;43675;50.030;21.952;2022-12-18T05:07:34;100373.89;;;-4.58;70.64
57847;BME280;43675;50.030;21.952;2022-12-18T05:09:59;100386.17;;;-4.59;70.63
57847;BME280;43675;50.030;21.952;2022-12-18T05:12:25;100386.63;;;-4.59;70.61
57847;BME280;43675;50.030;21.952;2022-12-18T05:14:51;100386.17;;;-4.59;70.62
57847;BME280;43675;50.030;21.952;2022-12-18T05:17:17;100390.45;;;-4.58;70.51
57847;BME280;43675;50.030;21.952;2022-12-18T05:19:43;100389.08;;;-4.56;70.45
57847;BME280;43675;50.030;21.952;2022-12-18T05:22:09;100392.45;;;-4.54;70.45
57847;BME280;43675;50.030;21.952;2022-12-18T05:24:35;100400.25;;;-4.53;70.34
57847;BME280;43675;50.030;21.952;2022-12-18T05:27:01;100408.87;;;-4.51;70.27
57847;BME280;43675;50.030;21.952;2022-12-18T05:29:27;100417.74;;;-4.53;70.21
57847;BME280;43675;50.030;21.952;2022-12-18T05:31:52;100419.61;;;-4.55;70.06
57847;BME280;43675;50.030;21.952;2022-12-18T05:34:18;100420.59;;;-4.58;70.00
57847;BME280;43675;50.030;21.952;2022-12-18T05:36:44;100417.67;;;-4.60;70.00
57847;BME280;43675;50.030;21.952;2022-12-18T05:39:10;100421.20;;;-4.61;70.12
57847;BME280;43675;50.030;21.952;2022-12-18T05:41:35;100429.70;;;-4.56;70.25
57847;BME280;43675;50.030;21.952;2022-12-18T05:44:01;100432.09;;;-4.52;70.16
57847;BME280;43675;50.030;21.952;2022-12-18T05:46:27;100435.92;;;-4.50;70.10
57847;BME280;43675;50.030;21.952;2022-12-18T05:48:53;100430.78;;;-4.52;69.94
57847;BME280;43675;50.030;21.952;2022-12-18T05:51:20;100427.21;;;-4.51;70.03
57847;BME280;43675;50.030;21.952;2022-12-18T05:53:47;100432.23;;;-4.46;69.92
57847;BME280;43675;50.030;21.952;2022-12-18T05:56:17;100434.94;;;-4.48;69.80
57847;BME280;43675;50.030;21.952;2022-12-18T05:58:42;100433.63;;;-4.48;69.67
57847;BME280;43675;50.030;21.952;2022-12-18T06:01:11;100431.86;;;-4.47;69.80
57847;BME280;43675;50.030;21.952;2022-12-18T06:03:37;100439.63;;;-4.46;69.74
57847;BME280;43675;50.030;21.952;2022-12-18T06:06:03;100441.27;;;-4.43;69.68
57847;BME280;43675;50.030;21.952;2022-12-18T06:08:29;100441.17;;;-4.42;69.58
57847;BME280;43675;50.030;21.952;2022-12-18T06:10:55;100439.41;;;-4.41;69.55
57847;BME280;43675;50.030;21.952;2022-12-18T06:13:22;100438.88;;;-4.39;69.51
57847;BME280;43675;50.030;21.952;2022-12-18T06:15:48;100448.34;;;-4.37;69.49
57847;BME280;43675;50.030;21.952;2022-12-18T06:18:13;100448.19;;;-4.34;69.47
57847;BME280;43675;50.030;21.952;2022-12-18T06:20:39;100458.83;;;-4.28;69.49
57847;BME280;43675;50.030;21.952;2022-12-18T06:23:05;100459.75;;;-4.20;69.56
57847;BME280;43675;50.030;21.952;2022-12-18T06:25:32;100462.44;;;-4.13;69.56
57847;BME280;43675;50.030;21.952;2022-12-18T06:27:57;100468.20;;;-4.07;69.46
57847;BME280;43675;50.030;21.952;2022-12-18T06:30:23;100475.38;;;-4.02;69.38
57847;BME280;43675;50.030;21.952;2022-12-18T06:32:49;100476.86;;;-3.96;69.46
57847;BME280;43675;50.030;21.952;2022-12-18T06:35:15;100475.27;;;-3.92;69.40
57847;BME280;43675;50.030;21.952;2022-12-18T06:37:41;100483.30;;;-3.86;69.26
57847;BME280;43675;50.030;21.952;2022-12-18T06:40:07;100483.98;;;-3.83;69.19
57847;BME280;43675;50.030;21.952;2022-12-18T06:42:33;100490.02;;;-3.80;69.03
57847;BME280;43675;50.030;21.952;2022-12-18T06:44:59;100492.94;;;-3.78;69.13
57847;BME280;43675;50.030;21.952;2022-12-18T06:47:25;100487.06;;;-3.74;69.14
57847;BME280;43675;50.030;21.952;2022-12-18T06:49:51;100499.48;;;-3.69;68.99
57847;BME280;43675;50.030;21.952;2022-12-18T06:52:16;100494.59;;;-3.68;69.06
57847;BME280;43675;50.030;21.952;2022-12-18T06:54:42;100497.84;;;-3.63;69.19
57847;BME280;43675;50.030;21.952;2022-12-18T06:57:08;100500.16;;;-3.57;69.20
57847;BME280;43675;50.030;21.952;2022-12-18T06:59:33;100497.26;;;-3.53;69.16
57847;BME280;43675;50.030;21.952;2022-12-18T07:01:59;100501.80;;;-3.48;69.17
57847;BME280;43675;50.030;21.952;2022-12-18T07:04:29;100506.35;;;-3.43;69.16
57847;BME280;43675;50.030;21.952;2022-12-18T07:06:55;100504.80;;;-3.38;69.13
57847;BME280;43675;50.030;21.952;2022-12-18T07:09:20;100508.95;;;-3.34;69.17
57847;BME280;43675;50.030;21.952;2022-12-18T07:11:46;100519.75;;;-3.31;69.02
57847;BME280;43675;50.030;21.952;2022-12-18T07:14:12;100518.27;;;-3.28;69.09
57847;BME280;43675;50.030;21.952;2022-12-18T07:16:38;100528.98;;;-3.24;68.97
57847;BME280;43675;50.030;21.952;2022-12-18T07:19:03;100530.41;;;-3.26;68.94
57847;BME280;43675;50.030;21.952;2022-12-18T07:21:29;100531.16;;;-3.24;68.98
57847;BME280;43675;50.030;21.952;2022-12-18T07:23:55;100535.70;;;-3.19;68.98
57847;BME280;43675;50.030;21.952;2022-12-18T07:26:21;100540.78;;;-3.16;68.92
57847;BME280;43675;50.030;21.952;2022-12-18T07:28:47;100545.00;;;-3.13;68.82
57847;BME280;43675;50.030;21.952;2022-12-18T07:31:16;100549.66;;;-3.10;68.73
57847;BME280;43675;50.030;21.952;2022-12-18T07:33:43;100552.74;;;-3.10;68.60
57847;BME280;43675;50.030;21.952;2022-12-18T07:36:10;100547.95;;;-3.11;68.70
57847;BME280;43675;50.030;21.952;2022-12-18T07:38:36;100550.80;;;-3.07;68.72
57847;BME280;43675;50.030;21.952;2022-12-18T07:41:04;100550.16;;;-3.03;68.72
57847;BME280;43675;50.030;21.952;2022-12-18T07:43:30;100549.59;;;-3.01;68.65
57847;BME280;43675;50.030;21.952;2022-12-18T07:45:56;100556.09;;;-3.00;68.71
57847;BME280;43675;50.030;21.952;2022-12-18T07:48:22;100556.16;;;-3.01;68.75
57847;BME280;43675;50.030;21.952;2022-12-18T07:50:48;100567.67;;;-2.95;68.93
57847;BME280;43675;50.030;21.952;2022-12-18T07:53:14;100566.86;;;-2.89;68.79
57847;BME280;43675;50.030;21.952;2022-12-18T07:55:41;100564.62;;;-2.88;68.73
57847;BME280;43675;50.030;21.952;2022-12-18T07:58:07;100569.77;;;-2.86;68.80
57847;BME280;43675;50.030;21.952;2022-12-18T08:00:33;100573.57;;;-2.83;68.71
57847;BME280;43675;50.030;21.952;2022-12-18T08:02:59;100571.23;;;-2.80;68.63
57847;BME280;43675;50.030;21.952;2022-12-18T08:05:25;100572.55;;;-2.80;68.64
57847;BME280;43675;50.030;21.952;2022-12-18T08:07:51;100577.55;;;-2.76;68.65
57847;BME280;43675;50.030;21.952;2022-12-18T08:10:18;100586.40;;;-2.70;68.69
57847;BME280;43675;50.030;21.952;2022-12-18T08:12:43;100585.05;;;-2.61;68.62
57847;BME280;43675;50.030;21.952;2022-12-18T08:15:09;100594.67;;;-2.53;68.64
57847;BME280;43675;50.030;21.952;2022-12-18T08:17:35;100590.41;;;-2.47;68.42
57847;BME280;43675;50.030;21.952;2022-12-18T08:20:01;100597.98;;;-2.50;68.22
57847;BME280;43675;50.030;21.952;2022-12-18T08:22:27;100591.77;;;-2.56;68.18
57847;BME280;43675;50.030;21.952;2022-12-18T08:24:53;100598.12;;;-2.60;68.33
57847;BME280;43675;50.030;21.952;2022-12-18T08:27:18;100605.22;;;-2.62;68.40
57847;BME280;43675;50.030;21.952;2022-12-18T08:29:44;100612.40;;;-2.57;68.47
57847;BME280;43675;50.030;21.952;2022-12-18T08:32:10;100613.92;;;-2.53;68.34
57847;BME280;43675;50.030;21.952;2022-12-18T08:34:36;100620.57;;;-2.54;68.51
57847;BME280;43675;50.030;21.952;2022-12-18T08:37:01;100626.36;;;-2.48;68.58
57847;BME280;43675;50.030;21.952;2022-12-18T08:39:27;100627.03;;;-2.44;68.37
57847;BME280;43675;50.030;21.952;2022-12-18T08:41:53;100631.20;;;-2.40;68.28
57847;BME280;43675;50.030;21.952;2022-12-18T08:44:19;100625.55;;;-2.41;68.33
57847;BME280;43675;50.030;21.952;2022-12-18T08:46:44;100627.53;;;-2.37;68.33
57847;BME280;43675;50.030;21.952;2022-12-18T08:49:11;100623.27;;;-2.31;68.27
57847;BME280;43675;50.030;21.952;2022-12-18T08:51:37;100623.83;;;-2.26;68.14
57847;BME280;43675;50.030;21.952;2022-12-18T08:54:04;100631.08;;;-2.23;68.11
57847;BME280;43675;50.030;21.952;2022-12-18T08:56:30;100628.58;;;-2.17;68.14
57847;BME280;43675;50.030;21.952;2022-12-18T08:58:56;100628.72;;;-2.12;68.27
57847;BME280;43675;50.030;21.952;2022-12-18T09:01:22;100630.52;;;-2.05;68.24
57847;BME280;43675;50.030;21.952;2022-12-18T09:03:49;100630.08;;;-1.98;68.04
57847;BME280;43675;50.030;21.952;2022-12-18T09:06:18;100631.67;;;-1.95;67.93
57847;BME280;43675;50.030;21.952;2022-12-18T09:08:44;100629.56;;;-1.88;67.98
57847;BME280;43675;50.030;21.952;2022-12-18T09:11:26;100628.34;;;-1.83;67.89
57847;BME280;43675;50.030;21.952;2022-12-18T09:13:52;100636.37;;;-1.77;67.91
57847;BME280;43675;50.030;21.952;2022-12-18T09:16:18;100638.42;;;-1.75;67.69
57847;BME280;43675;50.030;21.952;2022-12-18T09:18:44;100634.86;;;-1.74;67.79
57847;BME280;43675;50.030;21.952;2022-12-18T09:21:12;100635.45;;;-1.69;67.80
57847;BME280;43675;50.030;21.952;2022-12-18T09:23:38;100645.52;;;-1.69;67.53
57847;BME280;43675;50.030;21.952;2022-12-18T09:26:04;100650.39;;;-1.70;67.35
57847;BME280;43675;50.030;21.952;2022-12-18T09:28:30;100650.37;;;-1.77;67.10
57847;BME280;43675;50.030;21.952;2022-12-18T09:30:56;100647.02;;;-1.87;67.08
57847;BME280;43675;50.030;21.952;2022-12-18T09:33:22;100652.73;;;-1.95;67.18
57847;BME280;43675;50.030;21.952;2022-12-18T09:35:47;100655.41;;;-2.04;67.10
57847;BME280;43675;50.030;21.952;2022-12-18T09:38:16;100655.84;;;-2.11;67.10
57847;BME280;43675;50.030;21.952;2022-12-18T09:40:44;100648.77;;;-2.18;67.14
57847;BME280;43675;50.030;21.952;2022-12-18T09:43:19;100652.05;;;-2.21;67.13
57847;BME280;43675;50.030;21.952;2022-12-18T09:45:55;100653.89;;;-2.23;67.10
57847;BME280;43675;50.030;21.952;2022-12-18T09:48:27;100657.02;;;-2.24;67.11
57847;BME280;43675;50.030;21.952;2022-12-18T09:50:57;100645.66;;;-2.24;67.11
57847;BME280;43675;50.030;21.952;2022-12-18T09:53:24;100644.62;;;-2.22;67.20
57847;BME280;43675;50.030;21.952;2022-12-18T09:55:52;100646.78;;;-2.21;66.83
57847;BME280;43675;50.030;21.952;2022-12-18T09:58:39;100649.77;;;-2.27;66.73
57847;BME280;43675;50.030;21.952;2022-12-18T10:01:11;100649.17;;;-2.32;66.61
57847;BME280;43675;50.030;21.952;2022-12-18T10:03:37;100655.81;;;-2.34;66.83
57847;BME280;43675;50.030;21.952;2022-12-18T10:06:13;100655.56;;;-2.29;66.60
57847;BME280;43675;50.030;21.952;2022-12-18T10:08:49;100661.93;;;-2.33;66.40
57847;BME280;43675;50.030;21.952;2022-12-18T10:19:39;100664.55;;;-2.18;66.72
57847;BME280;43675;50.030;21.952;2022-12-18T10:22:32;100660.11;;;-2.09;66.56
57847;BME280;43675;50.030;21.952;2022-12-18T10:27:34;100657.31;;;-1.99;66.44
57847;BME280;43675;50.030;21.952;2022-12-18T10:30:04;100668.23;;;-1.98;66.43
57847;BME280;43675;50.030;21.952;2022-12-18T10:32:29;100667.31;;;-1.97;66.25
57847;BME280;43675;50.030;21.952;2022-12-18T10:34:57;100673.68;;;-2.01;66.06
57847;BME280;43675;50.030;21.952;2022-12-18T10:37:26;100674.32;;;-2.04;66.13
57847;BME280;43675;50.030;21.952;2022-12-18T10:40:12;100674.78;;;-2.05;66.03
57847;BME280;43675;50.030;21.952;2022-12-18T10:42:38;100666.01;;;-2.12;65.98
57847;BME280;43675;50.030;21.952;2022-12-18T10:45:10;100672.27;;;-2.15;66.07
57847;BME280;43675;50.030;21.952;2022-12-18T10:47:42;100675.29;;;-2.14;66.03
57847;BME280;43675;50.030;21.952;2022-12-18T10:50:20;100676.99;;;-2.13;66.04
57847;BME280;43675;50.030;21.952;2022-12-18T10:52:55;100677.20;;;-2.09;66.18
57847;BME280;43675;50.030;21.952;2022-12-18T10:55:22;100679.79;;;-2.00;66.09
57847;BME280;43675;50.030;21.952;2022-12-18T10:57:49;100673.57;;;-1.99;65.91
57847;BME280;43675;50.030;21.952;2022-12-18T11:00:28;100678.94;;;-2.01;65.86
57847;BME280;43675;50.030;21.952;2022-12-18T11:02:55;100680.12;;;-2.06;65.80
57847;BME280;43675;50.030;21.952;2022-12-18T11:05:31;100683.64;;;-2.14;65.79
57847;BME280;43675;50.030;21.952;2022-12-18T11:07:53;100677.56;;;-2.23;65.77
57847;BME280;43675;50.030;21.952;2022-12-18T11:10:22;100673.45;;;-2.27;65.78
57847;BME280;43675;50.030;21.952;2022-12-18T11:12:49;100674.66;;;-2.26;65.91
57847;BME280;43675;50.030;21.952;2022-12-18T11:15:28;100668.93;;;-2.25;65.94
57847;BME280;43675;50.030;21.952;2022-12-18T11:17:55;100676.00;;;-2.19;65.90
57847;BME280;43675;50.030;21.952;2022-12-18T11:20:32;100678.95;;;-2.16;65.71
57847;BME280;43675;50.030;21.952;2022-12-18T11:23:04;100690.47;;;-2.19;65.34
57847;BME280;43675;50.030;21.952;2022-12-18T11:25:32;100684.46;;;-2.21;65.41
57847;BME280;43675;50.030;21.952;2022-12-18T11:28:25;100690.25;;;-2.23;65.17
57847;BME280;43675;50.030;21.952;2022-12-18T11:30:37;100683.18;;;-2.29;65.03
57847;BME280;43675;50.030;21.952;2022-12-18T11:33:18;100680.58;;;-2.38;65.13
57847;BME280;43675;50.030;21.952;2022-12-18T11:36:01;100675.54;;;-2.34;65.34
57847;BME280;43675;50.030;21.952;2022-12-18T11:38:34;100680.69;;;-2.24;65.35
57847;BME280;43675;50.030;21.952;2022-12-18T11:41:04;100679.80;;;-2.16;65.30
57847;BME280;43675;50.030;21.952;2022-12-18T11:43:33;100675.50;;;-2.10;65.12
57847;BME280;43675;50.030;21.952;2022-12-18T11:46:08;100676.09;;;-2.05;65.24
57847;BME280;43675;50.030;21.952;2022-12-18T11:48:41;100678.69;;;-1.96;65.13
57847;BME280;43675;50.030;21.952;2022-12-18T11:51:11;100675.23;;;-1.89;65.12
57847;BME280;43675;50.030;21.952;2022-12-18T11:53:35;100678.73;;;-1.82;65.13
57847;BME280;43675;50.030;21.952;2022-12-18T11:56:27;100675.84;;;-1.77;64.75
57847;BME280;43675;50.030;21.952;2022-12-18T12:26:35;100688.69;;;-1.80;64.42
57847;BME280;43675;50.030;21.952;2022-12-18T12:32:12;100696.17;;;-1.88;64.27
57847;BME280;43675;50.030;21.952;2022-12-18T12:39:56;100703.30;;;-1.97;63.77
57847;BME280;43675;50.030;21.952;2022-12-18T12:42:35;100711.02;;;-2.10;63.47
57847;BME280;43675;50.030;21.952;2022-12-18T12:44:55;100710.41;;;-2.30;63.23
57847;BME280;43675;50.030;21.952;2022-12-18T12:47:33;100714.72;;;-2.45;63.38
57847;BME280;43675;50.030;21.952;2022-12-18T12:50:03;100715.67;;;-2.55;63.57
57847;BME280;43675;50.030;21.952;2022-12-18T12:52:42;100714.87;;;-2.64;63.82
57847;BME280;43675;50.030;21.952;2022-12-18T12:55:14;100720.59;;;-2.64;63.83
57847;BME280;43675;50.030;21.952;2022-12-18T12:57:45;100724.77;;;-2.69;64.03
57847;BME280;43675;50.030;21.952;2022-12-18T13:00:13;100721.28;;;-2.69;64.03
57847;BME280;43675;50.030;21.952;2022-12-18T13:05:34;100735.91;;;-2.72;63.75
57847;BME280;43675;50.030;21.952;2022-12-18T13:08:21;100741.23;;;-2.74;63.83
57847;BME280;43675;50.030;21.952;2022-12-18T13:10:41;100740.77;;;-2.73;63.96
57847;BME280;43675;50.030;21.952;2022-12-18T13:13:10;100749.91;;;-2.72;63.98
57847;BME280;43675;50.030;21.952;2022-12-18T13:15:45;100752.92;;;-2.71;63.94
57847;BME280;43675;50.030;21.952;2022-12-18T13:18:13;100752.37;;;-2.69;64.10
57847;BME280;43675;50.030;21.952;2022-12-18T13:21:01;100749.96;;;-2.65;64.13
57847;BME280;43675;50.030;21.952;2022-12-18T13:31:14;100762.19;;;-2.64;64.14
57847;BME280;43675;50.030;21.952;2022-12-18T13:33:43;100772.54;;;-2.69;64.17
57847;BME280;43675;50.030;21.952;2022-12-18T13:36:26;100779.80;;;-2.74;64.15
57847;BME280;43675;50.030;21.952;2022-12-18T13:41:42;100787.55;;;-2.80;64.27
57847;BME280;43675;50.030;21.952;2022-12-18T13:44:39;100787.03;;;-2.87;64.43
57847;BME280;43675;50.030;21.952;2022-12-18T13:47:27;100794.06;;;-2.87;64.49
57847;BME280;43675;50.030;21.952;2022-12-18T13:49:53;100802.93;;;-2.90;64.52
57847;BME280;43675;50.030;21.952;2022-12-18T13:52:28;100804.11;;;-2.95;64.56
57847;BME280;43675;50.030;21.952;2022-12-18T13:54:59;100808.91;;;-2.95;64.65
57847;BME280;43675;50.030;21.952;2022-12-18T13:57:35;100811.30;;;-2.99;64.57
57847;BME280;43675;50.030;21.952;2022-12-18T14:00:28;100826.83;;;-3.03;64.61
57847;BME280;43675;50.030;21.952;2022-12-18T14:02:56;100833.91;;;-3.05;64.77
57847;BME280;43675;50.030;21.952;2022-12-18T14:05:35;100830.37;;;-3.04;64.79
57847;BME280;43675;50.030;21.952;2022-12-18T14:08:08;100836.94;;;-3.04;64.80
57847;BME280;43675;50.030;21.952;2022-12-18T14:10:30;100845.73;;;-3.05;64.82
57847;BME280;43675;50.030;21.952;2022-12-18T14:12:57;100864.44;;;-3.11;64.63
57847;BME280;43675;50.030;21.952;2022-12-18T14:18:00;100871.52;;;-3.30;64.54
57847;BME280;43675;50.030;21.952;2022-12-18T14:20:29;100863.84;;;-3.35;64.35
57847;BME280;43675;50.030;21.952;2022-12-18T14:22:57;100866.75;;;-3.41;64.20
57847;BME280;43675;50.030;21.952;2022-12-18T14:25:25;100868.06;;;-3.49;64.25